createdAt,value
2022-10-23T00:01:23.423Z,5.18
2022-10-23T00:03:56.135Z,2.67
2022-10-23T00:06:24.507Z,3.45
2022-10-23T00:08:51.743Z,4.80
2022-10-23T00:11:21.310Z,4.30
2022-10-23T00:13:48.979Z,4.97
2022-10-23T00:16:16.153Z,4.15
2022-10-23T00:18:43.105Z,4.82
2022-10-23T00:21:12.123Z,4.57
2022-10-23T00:23:39.068Z,4.55
2022-10-23T00:26:05.881Z,4.30
2022-10-23T00:28:32.627Z,3.22
2022-10-23T00:31:03.178Z,4.00
2022-10-23T00:33:30.399Z,3.90
2022-10-23T00:35:57.221Z,3.72
2022-10-23T00:38:24.209Z,3.83
2022-10-23T00:40:51.680Z,3.47
2022-10-23T00:43:24.730Z,2.50
2022-10-23T00:45:52.148Z,2.10
2022-10-23T00:48:19.165Z,3.60
2022-10-23T00:50:47.773Z,4.65
2022-10-23T00:53:16.012Z,4.13
2022-10-23T00:55:46.865Z,4.03
2022-10-23T00:58:17.679Z,5.00
2022-10-23T01:00:54.299Z,4.53
2022-10-23T01:03:25.204Z,4.80
2022-10-23T01:06:24.270Z,4.13
2022-10-23T01:08:56.163Z,4.70
2022-10-23T01:11:33.422Z,3.83
2022-10-23T01:14:15.832Z,4.88
2022-10-23T01:16:48.621Z,4.80
2022-10-23T01:19:32.268Z,4.28
2022-10-23T01:22:36.509Z,4.20
2022-10-23T01:25:32.179Z,5.40
2022-10-23T01:28:03.309Z,4.80
2022-10-23T01:30:31.292Z,4.60
2022-10-23T01:33:24.803Z,4.85
2022-10-23T01:36:05.921Z,5.07
2022-10-23T01:39:05.578Z,4.55
2022-10-23T01:41:57.945Z,4.80
2022-10-23T01:44:35.251Z,4.63
2022-10-23T01:47:05.281Z,4.10
2022-10-23T01:49:37.067Z,4.60
2022-10-23T01:52:08.032Z,5.13
2022-10-23T01:54:38.746Z,5.45
2022-10-23T01:57:10.237Z,5.85
2022-10-23T01:59:41.643Z,6.93
2022-10-23T02:02:11.423Z,7.47
2022-10-23T02:04:47.563Z,5.70
2022-10-23T02:07:14.319Z,6.75
2022-10-23T02:09:41.152Z,5.63
2022-10-23T02:12:18.646Z,5.53
2022-10-23T02:15:01.464Z,5.63
2022-10-23T02:17:43.877Z,4.97
2022-10-23T02:20:17.409Z,4.80
2022-10-23T02:22:54.407Z,4.88
2022-10-23T02:25:29.424Z,4.45
2022-10-23T02:28:01.735Z,4.85
2022-10-23T02:30:39.108Z,5.13
2022-10-23T02:33:11.783Z,10.38
2022-10-23T02:35:38.681Z,6.70
2022-10-23T02:38:37.465Z,5.30
2022-10-23T02:41:20.901Z,5.60
2022-10-23T02:43:58.000Z,6.60
2022-10-23T02:46:36.309Z,8.57
2022-10-23T02:49:19.348Z,5.30
2022-10-23T02:52:04.732Z,4.35
2022-10-23T02:54:55.867Z,5.45
2022-10-23T02:57:33.389Z,5.75
2022-10-23T03:00:14.151Z,4.70
2022-10-23T03:02:44.324Z,4.50
2022-10-23T03:05:18.429Z,4.78
2022-10-23T03:07:47.048Z,5.03
2022-10-23T03:10:16.509Z,5.13
2022-10-23T03:12:43.825Z,5.35
2022-10-23T03:15:12.422Z,6.05
2022-10-23T03:17:40.354Z,5.30
2022-10-23T03:20:07.923Z,6.15
2022-10-23T03:22:35.636Z,5.60
2022-10-23T03:25:02.501Z,5.22
2022-10-23T03:27:31.766Z,5.38
2022-10-23T03:30:01.026Z,7.82
2022-10-23T03:32:30.295Z,5.07
2022-10-23T03:34:57.152Z,6.47
2022-10-23T03:37:23.879Z,6.68
2022-10-23T03:39:50.931Z,6.05
2022-10-23T03:42:17.781Z,4.60
2022-10-23T03:44:44.774Z,5.15
2022-10-23T03:47:12.190Z,4.75
2022-10-23T03:49:39.485Z,5.00
2022-10-23T03:52:07.843Z,5.03
2022-10-23T03:54:34.989Z,5.30
2022-10-23T03:57:02.274Z,4.68
2022-10-23T03:59:29.223Z,4.75
2022-10-23T04:01:56.086Z,4.90
2022-10-23T04:04:24.635Z,4.80
2022-10-23T04:06:51.401Z,5.95
2022-10-23T04:09:19.745Z,6.95
2022-10-23T04:11:46.443Z,6.22
2022-10-23T04:14:14.120Z,7.65
2022-10-23T04:16:41.122Z,7.03
2022-10-23T04:19:07.821Z,6.38
2022-10-23T04:21:34.779Z,6.20
2022-10-23T04:24:01.635Z,5.90
2022-10-23T04:26:28.984Z,6.00
2022-10-23T04:28:55.772Z,6.03
2022-10-23T04:31:22.612Z,5.25
2022-10-23T04:33:49.569Z,5.75
2022-10-23T04:36:29.103Z,5.85
2022-10-23T04:38:58.924Z,6.28
2022-10-23T04:41:25.865Z,5.90
2022-10-23T04:43:52.584Z,5.88
2022-10-23T04:46:19.864Z,6.15
2022-10-23T04:48:48.061Z,6.45
2022-10-23T04:51:27.201Z,6.07
2022-10-23T04:54:23.331Z,6.18
2022-10-23T04:57:17.768Z,6.20
2022-10-23T04:59:55.767Z,6.47
2022-10-23T05:02:24.376Z,7.13
2022-10-23T05:04:52.095Z,7.00
2022-10-23T05:07:42.054Z,6.97
2022-10-23T05:10:19.767Z,6.38
2022-10-23T05:13:02.791Z,5.53
2022-10-23T05:15:29.971Z,6.00
2022-10-23T05:18:07.817Z,5.13
2022-10-23T05:20:36.475Z,6.60
2022-10-23T05:23:09.940Z,5.60
2022-10-23T05:25:37.765Z,5.25
2022-10-23T05:28:17.068Z,4.93
2022-10-23T05:30:44.176Z,4.85
2022-10-23T05:33:11.671Z,4.80
2022-10-23T05:35:44.292Z,4.50
2022-10-23T05:38:14.546Z,5.70
2022-10-23T05:40:42.117Z,5.30
2022-10-23T05:43:14.055Z,4.82
2022-10-23T05:45:49.555Z,7.22
2022-10-23T05:48:39.460Z,6.50
2022-10-23T05:51:11.751Z,11.88
2022-10-23T05:54:01.272Z,9.50
2022-10-23T05:56:56.036Z,8.15
2022-10-23T05:59:31.104Z,12.93
2022-10-23T06:02:01.022Z,12.07
2022-10-23T06:04:42.912Z,10.40
2022-10-23T06:07:09.696Z,8.88
2022-10-23T06:09:36.593Z,9.50
2022-10-23T06:12:03.500Z,8.82
2022-10-23T06:14:31.812Z,9.35
2022-10-23T06:16:58.698Z,9.18
2022-10-23T06:19:25.618Z,6.35
2022-10-23T06:21:55.821Z,5.90
2022-10-23T06:24:33.068Z,6.57
2022-10-23T06:27:03.020Z,6.20
2022-10-23T06:29:38.189Z,6.43
2022-10-23T06:32:05.181Z,5.60
2022-10-23T06:34:32.178Z,5.45
2022-10-23T06:36:59.157Z,6.72
2022-10-23T06:39:33.915Z,5.25
2022-10-23T06:42:13.987Z,5.93
2022-10-23T06:44:56.981Z,6.18
2022-10-23T06:47:46.928Z,5.75
2022-10-23T06:50:34.044Z,5.57
2022-10-23T06:53:06.512Z,6.10
2022-10-23T06:58:10.835Z,5.15
2022-10-23T07:00:49.944Z,5.47
2022-10-23T07:03:16.888Z,6.78
2022-10-23T07:05:47.522Z,6.00
2022-10-23T07:08:14.951Z,5.60
2022-10-23T07:10:45.304Z,5.85
2022-10-23T07:13:12.424Z,5.07
2022-10-23T07:15:58.706Z,4.93
2022-10-23T07:18:28.091Z,4.80
2022-10-23T07:21:29.636Z,5.60
2022-10-23T07:24:06.873Z,5.70
2022-10-23T07:26:36.917Z,4.95
2022-10-23T07:29:03.815Z,5.32
2022-10-23T07:31:33.713Z,4.75
2022-10-23T07:34:19.208Z,4.95
2022-10-23T07:36:51.103Z,4.95
2022-10-23T07:39:17.864Z,5.10
2022-10-23T07:41:51.595Z,6.15
2022-10-23T07:44:20.209Z,4.72
2022-10-23T07:46:48.844Z,4.70
2022-10-23T07:49:15.772Z,4.70
2022-10-23T07:51:44.685Z,4.97
2022-10-23T07:54:14.647Z,4.97
2022-10-23T07:56:56.532Z,5.20
2022-10-23T07:59:37.935Z,5.80
2022-10-23T08:02:14.788Z,4.50
2022-10-23T08:04:43.069Z,4.60
2022-10-23T08:07:37.164Z,4.60
2022-10-23T08:10:04.707Z,4.80
2022-10-23T08:12:33.060Z,4.95
2022-10-23T08:15:00.050Z,5.33
2022-10-23T08:17:34.428Z,5.15
2022-10-23T08:20:06.232Z,4.50
2022-10-23T08:22:39.208Z,5.63
2022-10-23T08:25:06.575Z,5.68
2022-10-23T08:27:33.285Z,4.83
2022-10-23T08:30:00.124Z,4.60
2022-10-23T08:32:30.458Z,4.07
2022-10-23T08:34:59.169Z,4.28
2022-10-23T08:37:28.691Z,3.88
2022-10-23T08:39:56.199Z,4.33
2022-10-23T08:42:52.189Z,4.00
2022-10-23T08:45:18.988Z,3.92
2022-10-23T08:47:53.269Z,3.92
2022-10-23T08:53:17.768Z,3.73
2022-10-23T08:56:07.004Z,3.60
2022-10-23T08:58:46.147Z,3.80
2022-10-23T09:01:40.637Z,3.65
2022-10-23T09:04:11.686Z,4.10
2022-10-23T09:07:04.574Z,3.83
2022-10-23T09:09:59.477Z,3.60
2022-10-23T09:12:29.051Z,4.40
2022-10-23T09:15:04.813Z,3.67
2022-10-23T09:17:34.398Z,3.60
2022-10-23T09:20:13.096Z,3.67
2022-10-23T09:22:40.987Z,3.78
2022-10-23T09:25:16.037Z,3.42
2022-10-23T09:27:56.678Z,3.55
2022-10-23T09:30:33.795Z,3.30
2022-10-23T09:33:12.405Z,4.13
2022-10-23T09:35:39.104Z,4.30
2022-10-23T09:38:05.915Z,4.03
2022-10-23T09:40:40.452Z,4.20
2022-10-23T09:43:21.830Z,3.35
2022-10-23T09:46:02.885Z,3.77
2022-10-23T09:48:30.637Z,3.58
2022-10-23T09:50:59.757Z,3.83
2022-10-23T09:53:31.954Z,3.80
2022-10-23T09:56:05.549Z,18.75
2022-10-23T09:58:36.997Z,3.23
2022-10-23T10:01:04.903Z,3.85
2022-10-23T10:03:52.211Z,3.85
2022-10-23T10:06:29.436Z,3.47
2022-10-23T10:08:59.795Z,3.17
2022-10-23T10:12:18.596Z,3.40
2022-10-23T10:15:03.654Z,3.30
2022-10-23T10:17:43.885Z,3.42
2022-10-23T10:20:25.687Z,3.10
2022-10-23T10:22:57.568Z,3.20
2022-10-23T10:25:24.428Z,3.00
2022-10-23T10:28:40.175Z,2.90
2022-10-23T10:31:32.764Z,2.67
2022-10-23T10:34:02.103Z,2.90
2022-10-23T10:36:51.845Z,2.60
2022-10-23T10:39:44.508Z,2.73
2022-10-23T10:42:26.359Z,2.80
2022-10-23T10:45:04.916Z,2.85
2022-10-23T10:47:44.473Z,2.33
2022-10-23T10:50:23.299Z,4.07
2022-10-23T10:53:03.425Z,4.40
2022-10-23T10:55:39.958Z,2.83
2022-10-23T10:58:33.634Z,2.72
2022-10-23T11:01:03.357Z,1.92
2022-10-23T11:03:54.905Z,1.30
2022-10-23T11:06:24.427Z,2.17
2022-10-23T11:08:58.121Z,1.90
2022-10-23T11:11:32.937Z,1.38
2022-10-23T11:13:59.949Z,7.78
2022-10-23T11:16:34.076Z,5.22
2022-10-23T11:19:22.059Z,1.80
2022-10-23T11:21:56.961Z,1.60
2022-10-23T11:24:59.315Z,1.60
2022-10-23T11:28:07.188Z,2.13
2022-10-23T11:31:03.373Z,1.58
2022-10-23T11:33:42.629Z,1.90
2022-10-23T11:36:15.027Z,1.90
2022-10-23T11:38:45.117Z,1.65
2022-10-23T11:41:25.730Z,2.20
2022-10-23T11:44:03.497Z,1.77
2022-10-23T11:46:32.613Z,1.60
2022-10-23T11:49:02.617Z,1.77
2022-10-23T11:51:29.441Z,2.20
2022-10-23T11:54:27.128Z,1.90
2022-10-23T11:57:15.140Z,1.80
2022-10-23T11:59:47.569Z,1.60
2022-10-23T12:02:29.266Z,1.75
2022-10-23T12:04:56.456Z,1.55
2022-10-23T12:07:31.778Z,1.75
2022-10-23T12:10:02.373Z,1.88
2022-10-23T12:12:35.112Z,2.00
2022-10-23T12:15:07.492Z,1.70
2022-10-23T12:17:44.388Z,1.80
2022-10-23T12:20:11.525Z,1.85
2022-10-23T12:22:47.707Z,1.90
2022-10-23T12:25:39.134Z,1.60
2022-10-23T12:28:28.746Z,2.00
2022-10-23T12:31:11.103Z,1.85
2022-10-23T12:33:43.341Z,1.70
2022-10-23T12:36:25.037Z,1.60
2022-10-23T12:38:52.027Z,1.60
2022-10-23T12:41:25.915Z,1.70
2022-10-23T12:44:02.012Z,1.80
2022-10-23T12:46:30.771Z,1.80
2022-10-23T12:48:58.549Z,1.70
2022-10-23T12:51:33.174Z,1.80
2022-10-23T12:54:01.479Z,1.85
2022-10-23T12:56:35.458Z,2.00
2022-10-23T12:59:02.862Z,1.70
2022-10-23T13:01:34.644Z,1.80
2022-10-23T13:04:32.040Z,1.93
2022-10-23T13:07:01.347Z,1.75
2022-10-23T13:09:38.136Z,1.50
2022-10-23T13:12:24.636Z,1.70
2022-10-23T13:15:07.417Z,1.98
2022-10-23T13:17:59.064Z,1.80
2022-10-23T13:20:38.050Z,1.80
2022-10-23T13:23:07.902Z,2.20
2022-10-23T13:25:36.940Z,1.80
2022-10-23T13:28:21.193Z,1.92
2022-10-23T13:31:21.629Z,1.57
2022-10-23T13:34:10.686Z,1.83
2022-10-23T13:36:39.565Z,1.90
2022-10-23T13:39:09.365Z,1.70
2022-10-23T13:41:43.743Z,1.83
2022-10-23T13:44:12.577Z,2.10
2022-10-23T13:46:39.570Z,1.80
2022-10-23T13:49:06.589Z,1.70
2022-10-23T13:51:48.618Z,1.70
2022-10-23T13:54:35.601Z,1.92
2022-10-23T13:57:03.017Z,1.70
2022-10-23T13:59:30.123Z,1.50
2022-10-23T14:01:57.069Z,1.88
2022-10-23T14:04:23.993Z,1.90
2022-10-23T14:06:50.817Z,1.83
2022-10-23T14:09:18.589Z,1.77
2022-10-23T14:11:45.616Z,2.30
2022-10-23T14:14:12.527Z,2.30
2022-10-23T14:16:39.713Z,1.98
2022-10-23T14:19:07.957Z,2.22
2022-10-23T14:21:34.810Z,2.00
2022-10-23T14:24:01.560Z,2.08
2022-10-23T14:26:30.250Z,2.30
2022-10-23T14:29:00.697Z,1.95
2022-10-23T14:31:31.160Z,2.03
2022-10-23T14:34:00.777Z,2.07
2022-10-23T14:36:38.307Z,2.17
2022-10-23T14:39:15.895Z,1.95
2022-10-23T14:41:42.620Z,2.40
2022-10-23T14:44:09.296Z,2.28
2022-10-23T14:46:38.385Z,2.10
2022-10-23T14:49:05.581Z,2.10
2022-10-23T14:51:32.838Z,2.15
2022-10-23T14:54:01.850Z,2.10
2022-10-23T14:56:30.255Z,2.30
2022-10-23T14:59:02.972Z,2.10
2022-10-23T15:01:30.974Z,1.90
2022-10-23T15:03:57.948Z,2.03
2022-10-23T15:06:25.288Z,2.08
2022-10-23T15:08:55.154Z,2.30
2022-10-23T15:11:23.708Z,1.63
2022-10-23T15:13:50.764Z,1.88
2022-10-23T15:16:17.561Z,2.28
2022-10-23T15:18:44.288Z,2.15
2022-10-23T15:21:10.991Z,2.38
2022-10-23T15:23:41.515Z,2.33
2022-10-23T15:26:11.479Z,2.42
2022-10-23T15:28:38.275Z,2.90
2022-10-23T15:31:05.979Z,2.13
2022-10-23T15:33:32.721Z,3.05
2022-10-23T15:35:59.427Z,2.40
2022-10-23T15:38:26.214Z,2.20
2022-10-23T15:41:00.731Z,2.40
2022-10-23T15:43:27.423Z,3.30
2022-10-23T15:45:54.100Z,3.28
2022-10-23T15:48:20.817Z,3.13
2022-10-23T15:50:47.652Z,3.58
2022-10-23T15:53:14.365Z,2.88
2022-10-23T15:55:41.110Z,3.10
2022-10-23T15:58:07.888Z,3.33
2022-10-23T16:00:36.667Z,2.87
2022-10-23T16:03:03.787Z,2.88
2022-10-23T16:05:30.960Z,3.30
2022-10-23T16:07:58.328Z,3.03
2022-10-23T16:10:25.616Z,3.72
2022-10-23T16:12:52.924Z,3.37
2022-10-23T16:15:19.900Z,4.85
2022-10-23T16:17:46.832Z,4.53
2022-10-23T16:20:13.688Z,4.95
2022-10-23T16:22:44.115Z,5.40
2022-10-23T16:25:13.278Z,4.77
2022-10-23T16:27:40.295Z,5.28
2022-10-23T16:30:09.874Z,5.43
2022-10-23T16:32:36.813Z,6.10
2022-10-23T16:35:04.007Z,5.35
2022-10-23T16:37:40.547Z,5.97
2022-10-23T16:40:13.169Z,4.97
2022-10-23T16:42:58.633Z,5.47
2022-10-23T16:45:34.449Z,5.38
2022-10-23T16:48:03.874Z,6.05
2022-10-23T16:50:30.702Z,5.73
2022-10-23T16:52:57.480Z,5.80
2022-10-23T16:55:24.326Z,5.90
2022-10-23T16:57:51.088Z,6.45
2022-10-23T17:00:21.888Z,7.68
2022-10-23T17:02:48.742Z,6.13
2022-10-23T17:05:15.660Z,6.35
2022-10-23T17:07:42.741Z,7.78
2022-10-23T17:10:10.014Z,7.97
2022-10-23T17:12:36.777Z,9.32
2022-10-23T17:15:03.868Z,9.30
2022-10-23T17:17:30.613Z,10.82
2022-10-23T17:19:57.412Z,13.27
2022-10-23T17:22:24.074Z,12.68
2022-10-23T17:24:53.162Z,13.25
2022-10-23T17:27:21.229Z,13.27
2022-10-23T17:29:47.957Z,14.18
2022-10-23T17:32:14.907Z,14.00
2022-10-23T17:34:41.684Z,14.82
2022-10-23T17:37:10.120Z,14.13
2022-10-23T17:39:37.100Z,15.30
2022-10-23T17:42:04.096Z,14.93
2022-10-23T17:44:30.853Z,14.93
2022-10-23T17:46:57.831Z,15.10
2022-10-23T17:49:25.640Z,15.20
2022-10-23T17:51:54.748Z,15.77
2022-10-23T17:54:22.599Z,16.33
2022-10-23T17:56:49.476Z,15.55
2022-10-23T17:59:19.294Z,15.25
2022-10-23T18:01:48.159Z,16.02
2022-10-23T18:04:16.968Z,15.33
2022-10-23T18:06:46.879Z,15.70
2022-10-23T18:09:13.965Z,17.50
2022-10-23T18:11:45.307Z,18.17
2022-10-23T18:14:14.145Z,18.63
2022-10-23T18:16:41.767Z,20.10
2022-10-23T18:19:08.935Z,18.52
2022-10-23T18:21:36.445Z,18.65
2022-10-23T18:24:03.603Z,19.08
2022-10-23T18:26:32.176Z,19.60
2022-10-23T18:28:59.733Z,20.13
2022-10-23T18:31:30.232Z,19.65
2022-10-23T18:33:59.021Z,19.50
2022-10-23T18:36:28.584Z,18.33
2022-10-23T18:41:28.085Z,16.77
2022-10-23T18:43:55.131Z,18.73
2022-10-23T18:46:22.112Z,18.73
2022-10-23T18:48:52.637Z,17.90
2022-10-23T18:51:23.681Z,17.95
2022-10-23T18:53:51.239Z,18.70
2022-10-23T18:56:23.474Z,18.23
2022-10-23T18:58:52.081Z,17.58
2022-10-23T19:01:19.411Z,18.17
2022-10-23T19:03:46.572Z,17.45
2022-10-23T19:06:14.611Z,18.80
2022-10-23T19:08:42.781Z,19.00
2022-10-23T19:11:10.271Z,17.60
2022-10-23T19:13:39.183Z,18.20
2022-10-23T19:16:15.862Z,18.23
2022-10-23T19:18:46.867Z,18.43
2022-10-23T19:21:14.246Z,18.55
2022-10-23T19:23:42.953Z,18.85
2022-10-23T19:26:13.061Z,19.63
2022-10-23T19:28:43.370Z,20.67
2022-10-23T19:31:11.241Z,20.93
2022-10-23T19:33:39.001Z,21.10
2022-10-23T19:36:09.880Z,20.23
2022-10-23T19:38:41.220Z,21.65
2022-10-23T19:41:08.016Z,21.35
2022-10-23T19:43:34.820Z,23.07
2022-10-23T19:46:05.058Z,23.15
2022-10-23T19:48:34.960Z,23.75
2022-10-23T19:51:01.780Z,23.55
2022-10-23T19:53:28.596Z,24.77
2022-10-23T19:56:03.068Z,24.93
2022-10-23T19:58:29.905Z,24.13
2022-10-23T20:00:56.734Z,24.63
2022-10-23T20:03:23.715Z,24.58
2022-10-23T20:05:50.532Z,24.85
2022-10-23T20:08:18.092Z,26.10
2022-10-23T20:10:46.576Z,25.83
2022-10-23T20:13:19.950Z,25.08
2022-10-23T20:15:47.147Z,24.35
2022-10-23T20:18:13.908Z,23.80
2022-10-23T20:20:42.351Z,24.77
2022-10-23T20:23:09.301Z,25.15
2022-10-23T20:25:36.413Z,25.10
2022-10-23T20:28:03.487Z,24.60
2022-10-23T20:30:30.292Z,23.83
2022-10-23T20:32:57.092Z,26.23
2022-10-23T20:35:24.202Z,24.30
2022-10-23T20:37:50.940Z,24.58
2022-10-23T20:40:17.645Z,24.40
2022-10-23T20:42:44.400Z,24.30
2022-10-23T20:45:11.100Z,24.87
2022-10-23T20:47:37.891Z,23.73
2022-10-23T20:50:04.909Z,24.63
2022-10-23T20:54:59.931Z,24.27
2022-10-23T20:57:26.621Z,24.27
2022-10-23T20:59:53.573Z,24.35
2022-10-23T21:02:20.438Z,25.13
2022-10-23T21:04:47.807Z,24.33
2022-10-23T21:07:14.547Z,23.73
2022-10-23T21:09:41.308Z,22.33
2022-10-23T21:12:09.079Z,22.13
2022-10-23T21:14:36.430Z,24.38
2022-10-23T21:17:03.334Z,22.88
2022-10-23T21:19:30.154Z,21.83
2022-10-23T21:21:57.016Z,24.07
2022-10-23T21:24:24.665Z,23.85
2022-10-23T21:26:51.712Z,23.30
2022-10-23T21:29:19.715Z,24.80
2022-10-23T21:31:58.241Z,25.17
2022-10-23T21:34:25.983Z,22.67
2022-10-23T21:39:39.903Z,23.02
2022-10-23T21:42:06.731Z,22.85
2022-10-23T21:44:33.459Z,22.00
2022-10-23T21:47:00.147Z,23.37
2022-10-23T21:49:26.960Z,21.58
2022-10-23T21:51:54.994Z,20.50
2022-10-23T21:54:22.421Z,20.75
2022-10-23T21:56:55.920Z,21.17
2022-10-23T21:59:28.814Z,22.27
2022-10-23T22:01:58.509Z,21.58
2022-10-23T22:04:25.373Z,20.38
2022-10-23T22:06:53.160Z,20.00
2022-10-23T22:09:21.009Z,19.75
2022-10-23T22:11:54.781Z,19.60
2022-10-23T22:14:22.415Z,20.13
2022-10-23T22:16:49.663Z,20.35
2022-10-23T22:19:17.760Z,20.58
2022-10-23T22:21:44.451Z,19.50
2022-10-23T22:24:11.815Z,20.33
2022-10-23T22:26:41.557Z,20.73
2022-10-23T22:29:11.271Z,20.92
2022-10-23T22:31:39.340Z,19.10
2022-10-23T22:34:18.972Z,21.02
2022-10-23T22:36:56.577Z,20.13
2022-10-23T22:39:24.258Z,19.55
2022-10-23T22:41:51.027Z,20.05
2022-10-23T22:44:18.348Z,19.63
2022-10-23T22:46:45.168Z,19.92
2022-10-23T22:49:12.077Z,20.13
2022-10-23T22:51:39.733Z,19.63
2022-10-23T22:54:07.172Z,20.58
2022-10-23T22:56:34.065Z,19.98
2022-10-23T22:59:00.742Z,20.40
2022-10-23T23:01:31.750Z,19.73
2022-10-23T23:04:08.708Z,19.40
2022-10-23T23:06:46.103Z,20.08
2022-10-23T23:09:17.070Z,19.75
2022-10-23T23:11:51.669Z,20.05
2022-10-23T23:14:24.054Z,20.33
2022-10-23T23:16:52.675Z,20.50
2022-10-23T23:19:19.480Z,19.90
2022-10-23T23:21:46.231Z,19.23
2022-10-23T23:24:12.976Z,18.45
2022-10-23T23:26:40.025Z,17.70
2022-10-23T23:29:06.763Z,18.23
2022-10-23T23:31:33.441Z,19.23
2022-10-23T23:34:00.149Z,18.42
2022-10-23T23:36:27.754Z,17.60
2022-10-23T23:38:57.131Z,18.27
2022-10-23T23:41:25.371Z,17.95
2022-10-23T23:43:57.117Z,17.48
2022-10-23T23:46:24.623Z,17.88
2022-10-23T23:48:51.279Z,17.30
2022-10-23T23:51:23.454Z,16.40
2022-10-23T23:53:51.063Z,16.88
2022-10-23T23:56:18.543Z,18.52
2022-10-23T23:58:45.396Z,16.25
